sensor_id;sensor_type;location;lat;lon;timestamp;pressure;altitude;pressure_sealevel;temperature;humidity
22647;BME280;11490;42.726;23.268;2023-02-18T00:01:29;95979.34;;;3.13;77.21
22647;BME280;11490;42.726;23.268;2023-02-18T00:03:54;95969.03;;;2.95;76.94
22647;BME280;11490;42.726;23.268;2023-02-18T00:06:24;95972.66;;;3.25;77.10
22647;BME280;11490;42.726;23.268;2023-02-18T00:08:50;95974.09;;;3.05;76.92
22647;BME280;11490;42.726;23.268;2023-02-18T00:11:18;95971.00;;;3.01;78.38
22647;BME280;11490;42.726;23.268;2023-02-18T00:13:52;95971.69;;;2.87;77.88
22647;BME280;11490;42.726;23.268;2023-02-18T00:16:18;95960.47;;;3.01;78.15
22647;BME280;11490;42.726;23.268;2023-02-18T00:18:43;95957.41;;;2.82;78.58
22647;BME280;11490;42.726;23.268;2023-02-18T00:21:08;95947.28;;;2.70;78.82
22647;BME280;11490;42.726;23.268;2023-02-18T00:23:34;95954.38;;;2.62;79.74
22647;BME280;11490;42.726;23.268;2023-02-18T00:26:02;95958.19;;;2.51;79.97
22647;BME280;11490;42.726;23.268;2023-02-18T00:28:27;95950.19;;;2.76;80.48
22647;BME280;11490;42.726;23.268;2023-02-18T00:30:53;95940.28;;;2.86;78.66
22647;BME280;11490;42.726;23.268;2023-02-18T00:33:19;95920.91;;;2.79;78.57
22647;BME280;11490;42.726;23.268;2023-02-18T00:35:44;95935.19;;;3.15;77.54
22647;BME280;11490;42.726;23.268;2023-02-18T00:38:09;95927.03;;;3.02;78.18
22647;BME280;11490;42.726;23.268;2023-02-18T00:40:41;95932.75;;;2.75;78.18
22647;BME280;11490;42.726;23.268;2023-02-18T00:43:08;95934.59;;;2.66;78.43
22647;BME280;11490;42.726;23.268;2023-02-18T00:45:33;95932.81;;;2.97;78.02
22647;BME280;11490;42.726;23.268;2023-02-18T00:47:58;95927.41;;;2.91;76.73
22647;BME280;11490;42.726;23.268;2023-02-18T00:50:24;95921.31;;;2.51;78.65
22647;BME280;11490;42.726;23.268;2023-02-18T00:52:49;95911.44;;;2.53;79.16
22647;BME280;11490;42.726;23.268;2023-02-18T00:55:15;95926.84;;;2.64;79.45
22647;BME280;11490;42.726;23.268;2023-02-18T00:57:40;95917.97;;;2.65;78.98
22647;BME280;11490;42.726;23.268;2023-02-18T01:00:06;95930.22;;;2.50;79.50
22647;BME280;11490;42.726;23.268;2023-02-18T01:02:32;95936.72;;;2.70;79.32
22647;BME280;11490;42.726;23.268;2023-02-18T01:04:57;95928.22;;;2.52;79.78
22647;BME280;11490;42.726;23.268;2023-02-18T01:07:23;95925.16;;;2.80;79.32
22647;BME280;11490;42.726;23.268;2023-02-18T01:09:48;95919.03;;;2.40;78.89
22647;BME280;11490;42.726;23.268;2023-02-18T01:12:14;95921.03;;;2.46;80.39
22647;BME280;11490;42.726;23.268;2023-02-18T01:14:40;95914.41;;;2.50;78.77
22647;BME280;11490;42.726;23.268;2023-02-18T01:17:05;95916.78;;;2.29;79.87
22647;BME280;11490;42.726;23.268;2023-02-18T01:19:31;95882.66;;;1.97;81.14
22647;BME280;11490;42.726;23.268;2023-02-18T01:21:56;95916.63;;;2.30;81.41
22647;BME280;11490;42.726;23.268;2023-02-18T01:24:21;95913.19;;;2.30;80.08
22647;BME280;11490;42.726;23.268;2023-02-18T01:26:47;95916.53;;;2.00;81.11
22647;BME280;11490;42.726;23.268;2023-02-18T01:29:12;95907.00;;;2.07;80.97
22647;BME280;11490;42.726;23.268;2023-02-18T01:31:37;95910.47;;;1.99;82.49
22647;BME280;11490;42.726;23.268;2023-02-18T01:34:03;95897.50;;;1.81;82.09
22647;BME280;11490;42.726;23.268;2023-02-18T01:36:28;95907.31;;;2.04;82.60
22647;BME280;11490;42.726;23.268;2023-02-18T01:38:54;95904.69;;;1.96;82.11
22647;BME280;11490;42.726;23.268;2023-02-18T01:41:19;95913.56;;;2.03;83.50
22647;BME280;11490;42.726;23.268;2023-02-18T01:43:45;95897.97;;;2.01;81.95
22647;BME280;11490;42.726;23.268;2023-02-18T01:48:41;95924.72;;;2.13;81.44
22647;BME280;11490;42.726;23.268;2023-02-18T01:51:19;95930.47;;;2.24;80.16
22647;BME280;11490;42.726;23.268;2023-02-18T01:53:55;95931.81;;;2.12;80.92
22647;BME280;11490;42.726;23.268;2023-02-18T01:56:43;95932.31;;;2.00;81.21
22647;BME280;11490;42.726;23.268;2023-02-18T01:59:15;95929.19;;;1.88;82.04
22647;BME280;11490;42.726;23.268;2023-02-18T02:01:43;95915.91;;;1.73;83.33
22647;BME280;11490;42.726;23.268;2023-02-18T02:04:09;95875.34;;;1.51;82.84
22647;BME280;11490;42.726;23.268;2023-02-18T02:06:34;95912.59;;;1.87;83.01
22647;BME280;11490;42.726;23.268;2023-02-18T02:09:03;95921.47;;;1.94;83.02
22647;BME280;11490;42.726;23.268;2023-02-18T02:11:47;95915.88;;;2.06;82.74
22647;BME280;11490;42.726;23.268;2023-02-18T02:17:10;95928.69;;;2.09;82.42
22647;BME280;11490;42.726;23.268;2023-02-18T02:20:18;95924.44;;;2.00;83.53
22647;BME280;11490;42.726;23.268;2023-02-18T02:36:58;95912.59;;;1.87;82.95
22647;BME280;11490;42.726;23.268;2023-02-18T02:39:35;95909.28;;;2.02;83.01
22647;BME280;11490;42.726;23.268;2023-02-18T02:50:09;95906.72;;;2.32;81.15
22647;BME280;11490;42.726;23.268;2023-02-18T02:52:40;95904.94;;;2.25;80.85
22647;BME280;11490;42.726;23.268;2023-02-18T02:55:09;95914.50;;;2.18;81.37
22647;BME280;11490;42.726;23.268;2023-02-18T02:58:04;95918.47;;;2.14;82.48
22647;BME280;11490;42.726;23.268;2023-02-18T03:03:42;95918.38;;;1.75;83.24
22647;BME280;11490;42.726;23.268;2023-02-18T03:08:56;95912.63;;;1.55;84.37
22647;BME280;11490;42.726;23.268;2023-02-18T03:11:25;95901.13;;;1.24;85.05
22647;BME280;11490;42.726;23.268;2023-02-18T03:14:43;95886.00;;;1.34;86.14
22647;BME280;11490;42.726;23.268;2023-02-18T03:17:06;95916.19;;;2.03;83.58
22647;BME280;11490;42.726;23.268;2023-02-18T03:19:46;95922.59;;;2.16;82.54
22647;BME280;11490;42.726;23.268;2023-02-18T03:22:26;95931.44;;;2.31;81.21
22647;BME280;11490;42.726;23.268;2023-02-18T03:24:55;95936.75;;;2.15;82.19
22647;BME280;11490;42.726;23.268;2023-02-18T03:27:33;95950.06;;;1.98;82.86
22647;BME280;11490;42.726;23.268;2023-02-18T03:30:18;95948.91;;;2.08;83.95
22647;BME280;11490;42.726;23.268;2023-02-18T03:32:48;95945.13;;;2.03;82.18
22647;BME280;11490;42.726;23.268;2023-02-18T03:35:16;95960.28;;;2.01;82.10
22647;BME280;11490;42.726;23.268;2023-02-18T03:37:49;95952.06;;;1.63;82.70
22647;BME280;11490;42.726;23.268;2023-02-18T03:40:17;95969.81;;;1.61;82.74
22647;BME280;11490;42.726;23.268;2023-02-18T03:42:42;95963.91;;;1.59;84.45
22647;BME280;11490;42.726;23.268;2023-02-18T03:45:08;95962.75;;;1.70;83.39
22647;BME280;11490;42.726;23.268;2023-02-18T03:47:33;95941.38;;;1.40;84.38
22647;BME280;11490;42.726;23.268;2023-02-18T03:49:59;95960.25;;;1.36;84.81
22647;BME280;11490;42.726;23.268;2023-02-18T03:52:24;95958.63;;;1.35;84.61
22647;BME280;11490;42.726;23.268;2023-02-18T03:54:50;95966.50;;;1.43;84.58
22647;BME280;11490;42.726;23.268;2023-02-18T03:57:15;95962.25;;;1.50;84.44
22647;BME280;11490;42.726;23.268;2023-02-18T03:59:40;95948.13;;;1.51;84.03
22647;BME280;11490;42.726;23.268;2023-02-18T04:02:06;95951.41;;;1.53;84.07
22647;BME280;11490;42.726;23.268;2023-02-18T04:04:31;95940.91;;;1.53;84.59
22647;BME280;11490;42.726;23.268;2023-02-18T04:06:57;95944.16;;;1.71;84.03
22647;BME280;11490;42.726;23.268;2023-02-18T04:09:22;95938.91;;;1.71;84.03
22647;BME280;11490;42.726;23.268;2023-02-18T04:11:47;95940.56;;;1.72;83.83
22647;BME280;11490;42.726;23.268;2023-02-18T04:14:13;95906.22;;;1.41;84.36
22647;BME280;11490;42.726;23.268;2023-02-18T04:16:39;95938.09;;;1.46;84.70
22647;BME280;11490;42.726;23.268;2023-02-18T04:19:05;95912.13;;;1.19;85.35
22647;BME280;11490;42.726;23.268;2023-02-18T04:21:30;95927.06;;;1.19;86.08
22647;BME280;11490;42.726;23.268;2023-02-18T04:23:56;95922.97;;;1.16;86.44
22647;BME280;11490;42.726;23.268;2023-02-18T04:26:21;95920.19;;;1.50;86.42
22647;BME280;11490;42.726;23.268;2023-02-18T04:28:46;95919.03;;;1.44;85.26
22647;BME280;11490;42.726;23.268;2023-02-18T04:31:12;95918.69;;;1.72;85.36
22647;BME280;11490;42.726;23.268;2023-02-18T04:33:37;95924.44;;;1.91;84.54
22647;BME280;11490;42.726;23.268;2023-02-18T04:36:03;95919.50;;;1.88;83.74
22647;BME280;11490;42.726;23.268;2023-02-18T04:38:28;95927.75;;;1.93;84.17
22647;BME280;11490;42.726;23.268;2023-02-18T04:40:53;95924.94;;;1.79;83.79
22647;BME280;11490;42.726;23.268;2023-02-18T04:43:21;95890.59;;;1.56;84.17
22647;BME280;11490;42.726;23.268;2023-02-18T04:45:54;95935.25;;;2.13;83.11
22647;BME280;11490;42.726;23.268;2023-02-18T04:48:19;95918.59;;;2.28;81.77
22647;BME280;11490;42.726;23.268;2023-02-18T04:50:45;95950.31;;;2.43;81.44
22647;BME280;11490;42.726;23.268;2023-02-18T04:53:10;95954.34;;;2.07;82.54
22647;BME280;11490;42.726;23.268;2023-02-18T04:55:35;95958.25;;;2.27;82.01
22647;BME280;11490;42.726;23.268;2023-02-18T04:58:01;95957.00;;;1.90;82.78
22647;BME280;11490;42.726;23.268;2023-02-18T05:00:26;95947.13;;;1.84;83.67
22647;BME280;11490;42.726;23.268;2023-02-18T05:02:53;95980.09;;;2.36;82.26
22647;BME280;11490;42.726;23.268;2023-02-18T05:05:18;95968.47;;;2.22;81.98
22647;BME280;11490;42.726;23.268;2023-02-18T05:07:44;95968.47;;;2.22;82.64
22647;BME280;11490;42.726;23.268;2023-02-18T05:10:10;95952.97;;;2.35;81.68
22647;BME280;11490;42.726;23.268;2023-02-18T05:12:38;95940.00;;;2.17;82.86
22647;BME280;11490;42.726;23.268;2023-02-18T05:15:05;95953.38;;;2.00;83.59
22647;BME280;11490;42.726;23.268;2023-02-18T05:17:30;95941.53;;;1.96;83.66
22647;BME280;11490;42.726;23.268;2023-02-18T05:19:56;95932.94;;;2.10;83.84
22647;BME280;11490;42.726;23.268;2023-02-18T05:22:21;95925.03;;;2.18;83.52
22647;BME280;11490;42.726;23.268;2023-02-18T05:24:47;95909.06;;;2.27;82.63
22647;BME280;11490;42.726;23.268;2023-02-18T05:27:12;95914.03;;;2.14;82.91
22647;BME280;11490;42.726;23.268;2023-02-18T05:29:37;95905.94;;;2.32;82.30
22647;BME280;11490;42.726;23.268;2023-02-18T05:32:03;95929.94;;;2.37;83.76
22647;BME280;11490;42.726;23.268;2023-02-18T05:34:28;95913.84;;;2.32;82.65
22647;BME280;11490;42.726;23.268;2023-02-18T05:36:54;95934.19;;;2.46;81.92
22647;BME280;11490;42.726;23.268;2023-02-18T05:39:19;95942.03;;;2.62;82.20
22647;BME280;11490;42.726;23.268;2023-02-18T05:41:44;95931.03;;;2.51;82.62
22647;BME280;11490;42.726;23.268;2023-02-18T05:44:10;95944.09;;;2.75;83.31
22647;BME280;11490;42.726;23.268;2023-02-18T05:47:06;95932.84;;;2.50;81.71
22647;BME280;11490;42.726;23.268;2023-02-18T05:49:52;95933.13;;;2.63;81.99
22647;BME280;11490;42.726;23.268;2023-02-18T05:52:20;95958.69;;;2.94;81.26
22647;BME280;11490;42.726;23.268;2023-02-18T05:54:46;95969.28;;;2.78;82.85
22647;BME280;11490;42.726;23.268;2023-02-18T05:57:15;95941.00;;;2.63;82.83
22647;BME280;11490;42.726;23.268;2023-02-18T05:59:40;95976.13;;;2.95;82.50
22647;BME280;11490;42.726;23.268;2023-02-18T06:02:06;95968.09;;;3.19;81.41
22647;BME280;11490;42.726;23.268;2023-02-18T06:04:31;95947.09;;;3.03;81.83
22647;BME280;11490;42.726;23.268;2023-02-18T06:06:57;95953.22;;;2.95;82.04
22647;BME280;11490;42.726;23.268;2023-02-18T06:09:23;95936.00;;;3.16;82.02
22647;BME280;11490;42.726;23.268;2023-02-18T06:11:48;95958.50;;;3.26;80.88
22647;BME280;11490;42.726;23.268;2023-02-18T06:14:13;95971.06;;;3.24;80.56
22647;BME280;11490;42.726;23.268;2023-02-18T06:16:39;95963.13;;;3.24;81.21
22647;BME280;11490;42.726;23.268;2023-02-18T06:19:04;95969.44;;;3.46;81.01
22647;BME280;11490;42.726;23.268;2023-02-18T06:21:30;95963.34;;;3.45;81.67
22647;BME280;11490;42.726;23.268;2023-02-18T06:23:55;95949.03;;;3.40;81.58
22647;BME280;11490;42.726;23.268;2023-02-18T06:26:20;95929.34;;;3.51;81.16
22647;BME280;11490;42.726;23.268;2023-02-18T06:28:46;95934.34;;;3.83;80.60
22647;BME280;11490;42.726;23.268;2023-02-18T06:31:11;95925.00;;;3.58;80.35
22647;BME280;11490;42.726;23.268;2023-02-18T06:33:36;95936.47;;;3.65;80.45
22647;BME280;11490;42.726;23.268;2023-02-18T06:36:04;95941.47;;;3.97;80.21
22647;BME280;11490;42.726;23.268;2023-02-18T06:38:36;95948.59;;;4.11;78.79
22647;BME280;11490;42.726;23.268;2023-02-18T06:41:02;95948.84;;;4.24;79.40
22647;BME280;11490;42.726;23.268;2023-02-18T06:43:27;95945.38;;;4.39;78.56
22647;BME280;11490;42.726;23.268;2023-02-18T06:45:53;95949.03;;;4.38;78.05
22647;BME280;11490;42.726;23.268;2023-02-18T06:48:19;95950.84;;;4.52;78.18
22647;BME280;11490;42.726;23.268;2023-02-18T06:50:44;95936.56;;;4.46;77.97
22647;BME280;11490;42.726;23.268;2023-02-18T06:53:11;95936.53;;;4.61;77.99
22647;BME280;11490;42.726;23.268;2023-02-18T06:55:37;95947.94;;;4.76;78.46
22647;BME280;11490;42.726;23.268;2023-02-18T06:58:03;95944.44;;;4.90;78.21
22647;BME280;11490;42.726;23.268;2023-02-18T07:00:29;95948.63;;;4.99;77.30
22647;BME280;11490;42.726;23.268;2023-02-18T07:02:54;95945.28;;;4.76;77.10
22647;BME280;11490;42.726;23.268;2023-02-18T07:05:20;95942.19;;;4.58;76.67
22647;BME280;11490;42.726;23.268;2023-02-18T07:07:45;95949.72;;;5.05;76.51
22647;BME280;11490;42.726;23.268;2023-02-18T07:10:11;95924.94;;;4.91;76.59
22647;BME280;11490;42.726;23.268;2023-02-18T07:12:36;95932.19;;;5.04;75.96
22647;BME280;11490;42.726;23.268;2023-02-18T07:15:02;95942.44;;;5.28;74.48
22647;BME280;11490;42.726;23.268;2023-02-18T07:17:27;95951.59;;;5.26;73.37
22647;BME280;11490;42.726;23.268;2023-02-18T07:19:53;95945.31;;;5.48;74.31
22647;BME280;11490;42.726;23.268;2023-02-18T07:22:19;95930.34;;;5.55;74.34
22647;BME280;11490;42.726;23.268;2023-02-18T07:24:45;95927.50;;;5.57;74.26
22647;BME280;11490;42.726;23.268;2023-02-18T07:27:10;95923.16;;;5.70;73.60
22647;BME280;11490;42.726;23.268;2023-02-18T07:29:35;95937.00;;;5.51;73.22
22647;BME280;11490;42.726;23.268;2023-02-18T07:32:01;95930.81;;;5.65;72.12
22647;BME280;11490;42.726;23.268;2023-02-18T07:34:26;95932.59;;;5.58;71.01
22647;BME280;11490;42.726;23.268;2023-02-18T07:36:52;95947.72;;;5.64;71.56
22647;BME280;11490;42.726;23.268;2023-02-18T07:39:17;95944.69;;;5.67;71.71
22647;BME280;11490;42.726;23.268;2023-02-18T07:41:45;95949.72;;;6.05;70.89
22647;BME280;11490;42.726;23.268;2023-02-18T07:44:12;95954.91;;;6.13;71.34
22647;BME280;11490;42.726;23.268;2023-02-18T07:46:41;95953.84;;;6.35;70.73
22647;BME280;11490;42.726;23.268;2023-02-18T07:49:10;95933.84;;;6.26;71.22
22647;BME280;11490;42.726;23.268;2023-02-18T07:51:35;95948.41;;;6.43;71.33
22647;BME280;11490;42.726;23.268;2023-02-18T07:54:02;95934.09;;;6.38;71.81
22647;BME280;11490;42.726;23.268;2023-02-18T07:56:28;95941.66;;;6.75;71.76
22647;BME280;11490;42.726;23.268;2023-02-18T07:58:53;95933.19;;;6.93;70.97
22647;BME280;11490;42.726;23.268;2023-02-18T08:01:18;95938.16;;;7.09;70.64
22647;BME280;11490;42.726;23.268;2023-02-18T08:03:44;95935.38;;;7.24;69.76
22647;BME280;11490;42.726;23.268;2023-02-18T08:06:35;95915.75;;;7.18;69.01
22647;BME280;11490;42.726;23.268;2023-02-18T08:09:01;95946.31;;;7.68;67.41
22647;BME280;11490;42.726;23.268;2023-02-18T08:11:27;95939.16;;;7.82;66.47
22647;BME280;11490;42.726;23.268;2023-02-18T08:13:52;95897.09;;;7.92;66.41
22647;BME280;11490;42.726;23.268;2023-02-18T08:16:19;95928.59;;;8.35;65.49
22647;BME280;11490;42.726;23.268;2023-02-18T08:18:45;95924.06;;;8.55;65.15
22647;BME280;11490;42.726;23.268;2023-02-18T08:21:15;95901.56;;;8.58;63.36
22647;BME280;11490;42.726;23.268;2023-02-18T08:23:41;95921.13;;;8.83;63.21
22647;BME280;11490;42.726;23.268;2023-02-18T08:26:06;95917.88;;;8.87;62.84
22647;BME280;11490;42.726;23.268;2023-02-18T08:28:32;95914.13;;;9.02;62.13
22647;BME280;11490;42.726;23.268;2023-02-18T08:30:58;95930.03;;;9.15;60.71
22647;BME280;11490;42.726;23.268;2023-02-18T08:33:24;95913.25;;;9.14;60.50
22647;BME280;11490;42.726;23.268;2023-02-18T08:35:51;95902.22;;;9.11;59.96
22647;BME280;11490;42.726;23.268;2023-02-18T08:38:17;95906.31;;;9.13;60.46
22647;BME280;11490;42.726;23.268;2023-02-18T08:40:43;95901.97;;;9.19;59.90
22647;BME280;11490;42.726;23.268;2023-02-18T08:43:09;95914.03;;;9.28;60.31
22647;BME280;11490;42.726;23.268;2023-02-18T08:45:36;95912.72;;;9.37;60.63
22647;BME280;11490;42.726;23.268;2023-02-18T08:48:03;95918.41;;;9.47;60.17
22647;BME280;11490;42.726;23.268;2023-02-18T08:50:28;95923.66;;;9.60;60.27
22647;BME280;11490;42.726;23.268;2023-02-18T08:52:55;95924.63;;;9.73;59.65
22647;BME280;11490;42.726;23.268;2023-02-18T08:55:21;95919.72;;;9.70;59.14
22647;BME280;11490;42.726;23.268;2023-02-18T08:57:47;95915.72;;;9.85;58.89
22647;BME280;11490;42.726;23.268;2023-02-18T09:00:15;95911.16;;;9.92;58.96
22647;BME280;11490;42.726;23.268;2023-02-18T09:02:41;95906.06;;;9.91;58.52
22647;BME280;11490;42.726;23.268;2023-02-18T09:05:07;95921.34;;;10.02;58.68
22647;BME280;11490;42.726;23.268;2023-02-18T09:07:34;95919.25;;;10.11;57.30
22647;BME280;11490;42.726;23.268;2023-02-18T09:09:59;95906.50;;;10.19;55.96
22647;BME280;11490;42.726;23.268;2023-02-18T09:12:25;95910.88;;;10.32;56.81
22647;BME280;11490;42.726;23.268;2023-02-18T09:14:50;95905.66;;;10.44;56.69
22647;BME280;11490;42.726;23.268;2023-02-18T09:17:15;95902.44;;;10.60;56.67
22647;BME280;11490;42.726;23.268;2023-02-18T09:19:41;95909.13;;;10.87;56.43
22647;BME280;11490;42.726;23.268;2023-02-18T09:22:06;95907.75;;;11.33;54.46
22647;BME280;11490;42.726;23.268;2023-02-18T09:24:36;95902.41;;;11.92;52.46
22647;BME280;11490;42.726;23.268;2023-02-18T09:27:02;95903.31;;;12.40;51.44
22647;BME280;11490;42.726;23.268;2023-02-18T09:29:27;95900.53;;;12.81;48.90
22647;BME280;11490;42.726;23.268;2023-02-18T09:31:53;95898.88;;;13.15;48.49
22647;BME280;11490;42.726;23.268;2023-02-18T09:34:18;95892.41;;;13.39;47.34
22647;BME280;11490;42.726;23.268;2023-02-18T09:36:43;95901.06;;;13.58;44.57
22647;BME280;11490;42.726;23.268;2023-02-18T09:39:09;95909.13;;;14.03;44.71
22647;BME280;11490;42.726;23.268;2023-02-18T09:41:51;95895.41;;;14.16;42.00
22647;BME280;11490;42.726;23.268;2023-02-18T09:44:24;95888.50;;;14.37;42.53
22647;BME280;11490;42.726;23.268;2023-02-18T09:46:57;95907.03;;;14.72;41.35
22647;BME280;11490;42.726;23.268;2023-02-18T09:49:27;95889.97;;;14.61;40.51
22647;BME280;11490;42.726;23.268;2023-02-18T09:51:54;95890.78;;;14.62;41.81
22647;BME280;11490;42.726;23.268;2023-02-18T09:54:20;95883.78;;;14.61;40.45
22647;BME280;11490;42.726;23.268;2023-02-18T09:56:46;95874.50;;;14.35;39.76
22647;BME280;11490;42.726;23.268;2023-02-18T09:59:20;95891.91;;;14.33;41.68
22647;BME280;11490;42.726;23.268;2023-02-18T10:01:51;95875.53;;;14.46;41.52
22647;BME280;11490;42.726;23.268;2023-02-18T10:04:22;95889.38;;;15.15;40.67
22647;BME280;11490;42.726;23.268;2023-02-18T10:06:51;95862.13;;;15.28;38.60
22647;BME280;11490;42.726;23.268;2023-02-18T10:09:28;95841.13;;;15.25;37.69
22647;BME280;11490;42.726;23.268;2023-02-18T10:12:15;95870.78;;;15.78;35.67
22647;BME280;11490;42.726;23.268;2023-02-18T10:14:42;95860.31;;;16.09;34.72
22647;BME280;11490;42.726;23.268;2023-02-18T10:17:13;95871.69;;;16.21;36.06
22647;BME280;11490;42.726;23.268;2023-02-18T10:19:41;95853.19;;;16.30;35.62
22647;BME280;11490;42.726;23.268;2023-02-18T10:22:11;95839.84;;;16.08;34.73
22647;BME280;11490;42.726;23.268;2023-02-18T10:24:45;95863.25;;;16.39;34.86
22647;BME280;11490;42.726;23.268;2023-02-18T10:27:19;95848.53;;;16.20;34.95
22647;BME280;11490;42.726;23.268;2023-02-18T10:29:50;95838.72;;;16.04;35.01
22647;BME280;11490;42.726;23.268;2023-02-18T10:32:22;95874.81;;;16.08;35.13
22647;BME280;11490;42.726;23.268;2023-02-18T10:40:24;95850.22;;;15.94;35.62
22647;BME280;11490;42.726;23.268;2023-02-18T10:46:11;95847.25;;;15.96;34.23
22647;BME280;11490;42.726;23.268;2023-02-18T10:51:49;95792.47;;;16.07;34.69
22647;BME280;11490;42.726;23.268;2023-02-18T10:54:16;95783.31;;;16.08;35.32
22647;BME280;11490;42.726;23.268;2023-02-18T10:56:52;95846.50;;;16.32;34.87
22647;BME280;11490;42.726;23.268;2023-02-18T10:59:32;95813.06;;;15.91;34.58
22647;BME280;11490;42.726;23.268;2023-02-18T11:02:10;95837.34;;;15.69;34.96
22647;BME280;11490;42.726;23.268;2023-02-18T11:05:16;95790.00;;;15.20;34.81
22647;BME280;11490;42.726;23.268;2023-02-18T11:08:34;95758.31;;;15.22;36.27
22647;BME280;11490;42.726;23.268;2023-02-18T11:11:37;95783.72;;;15.36;35.57
22647;BME280;11490;42.726;23.268;2023-02-18T11:18:38;95754.34;;;14.81;37.18
22647;BME280;11490;42.726;23.268;2023-02-18T11:21:37;95812.47;;;15.09;37.02
22647;BME280;11490;42.726;23.268;2023-02-18T11:27:37;95784.84;;;14.70;39.78
22647;BME280;11490;42.726;23.268;2023-02-18T11:30:48;95749.41;;;14.51;39.20
22647;BME280;11490;42.726;23.268;2023-02-18T11:33:42;95783.16;;;14.85;39.77
22647;BME280;11490;42.726;23.268;2023-02-18T11:36:22;95752.03;;;14.89;38.42
22647;BME280;11490;42.726;23.268;2023-02-18T11:39:17;95777.44;;;15.03;38.92
22647;BME280;11490;42.726;23.268;2023-02-18T11:42:07;95727.00;;;14.84;38.73
22647;BME280;11490;42.726;23.268;2023-02-18T11:44:54;95766.38;;;15.22;39.23
22647;BME280;11490;42.726;23.268;2023-02-18T11:47:33;95770.13;;;15.21;38.35
22647;BME280;11490;42.726;23.268;2023-02-18T11:50:22;95689.44;;;14.89;38.26
22647;BME280;11490;42.726;23.268;2023-02-18T11:56:19;95724.03;;;15.34;39.81
22647;BME280;11490;42.726;23.268;2023-02-18T11:58:58;95678.66;;;15.11;39.60
22647;BME280;11490;42.726;23.268;2023-02-18T12:05:19;95698.84;;;15.40;40.08
22647;BME280;11490;42.726;23.268;2023-02-18T12:07:50;95723.88;;;15.46;39.26
22647;BME280;11490;42.726;23.268;2023-02-18T12:13:04;95725.91;;;15.60;39.18
22647;BME280;11490;42.726;23.268;2023-02-18T12:15:40;95724.38;;;15.69;39.24
22647;BME280;11490;42.726;23.268;2023-02-18T12:26:47;95706.59;;;15.63;41.46
22647;BME280;11490;42.726;23.268;2023-02-18T12:29:48;95705.03;;;15.72;40.37
22647;BME280;11490;42.726;23.268;2023-02-18T12:45:43;95675.97;;;15.69;38.35
22647;BME280;11490;42.726;23.268;2023-02-18T12:52:00;95665.38;;;15.58;38.34
22647;BME280;11490;42.726;23.268;2023-02-18T12:57:24;95665.22;;;15.69;39.21
22647;BME280;11490;42.726;23.268;2023-02-18T13:10:55;95658.25;;;15.73;41.35
22647;BME280;11490;42.726;23.268;2023-02-18T13:13:27;95665.81;;;15.76;41.62
22647;BME280;11490;42.726;23.268;2023-02-18T13:15:58;95674.44;;;15.78;41.94
22647;BME280;11490;42.726;23.268;2023-02-18T13:18:30;95672.81;;;15.77;42.36
22647;BME280;11490;42.726;23.268;2023-02-18T13:21:18;95670.13;;;15.83;41.12
22647;BME280;11490;42.726;23.268;2023-02-18T13:26:13;95659.75;;;15.59;42.50
22647;BME280;11490;42.726;23.268;2023-02-18T13:35:15;95680.28;;;15.70;42.04
22647;BME280;11490;42.726;23.268;2023-02-18T13:37:43;95670.50;;;15.59;41.86
22647;BME280;11490;42.726;23.268;2023-02-18T13:40:25;95661.34;;;15.55;41.94
22647;BME280;11490;42.726;23.268;2023-02-18T13:42:54;95637.53;;;15.42;41.84
22647;BME280;11490;42.726;23.268;2023-02-18T13:45:30;95676.78;;;15.70;42.10
22647;BME280;11490;42.726;23.268;2023-02-18T13:47:58;95638.66;;;15.46;41.83
22647;BME280;11490;42.726;23.268;2023-02-18T13:50:38;95649.69;;;15.50;41.39
22647;BME280;11490;42.726;23.268;2023-02-18T13:55:50;95654.19;;;15.39;41.52
22647;BME280;11490;42.726;23.268;2023-02-18T14:01:46;95657.91;;;15.33;42.05
22647;BME280;11490;42.726;23.268;2023-02-18T14:07:36;95642.66;;;15.12;42.96
22647;BME280;11490;42.726;23.268;2023-02-18T14:17:49;95645.63;;;14.83;43.08
22647;BME280;11490;42.726;23.268;2023-02-18T14:22:48;95655.88;;;14.86;43.40
22647;BME280;11490;42.726;23.268;2023-02-18T14:27:49;95632.34;;;14.72;43.39
22647;BME280;11490;42.726;23.268;2023-02-18T14:30:19;95651.19;;;14.77;43.95
22647;BME280;11490;42.726;23.268;2023-02-18T14:32:51;95652.72;;;14.68;43.70
22647;BME280;11490;42.726;23.268;2023-02-18T14:35:26;95666.53;;;14.81;43.71
22647;BME280;11490;42.726;23.268;2023-02-18T14:41:20;95657.97;;;14.57;44.85
22647;BME280;11490;42.726;23.268;2023-02-18T14:52:05;95652.78;;;14.51;44.76
22647;BME280;11490;42.726;23.268;2023-02-18T14:54:35;95632.63;;;14.48;45.25
22647;BME280;11490;42.726;23.268;2023-02-18T14:57:08;95656.72;;;14.43;44.61
22647;BME280;11490;42.726;23.268;2023-02-18T14:59:40;95650.06;;;14.46;44.84
22647;BME280;11490;42.726;23.268;2023-02-18T15:02:17;95608.22;;;14.28;45.26
22647;BME280;11490;42.726;23.268;2023-02-18T15:04:44;95648.91;;;14.42;44.45
22647;BME280;11490;42.726;23.268;2023-02-18T15:07:10;95629.94;;;14.26;44.92
22647;BME280;11490;42.726;23.268;2023-02-18T15:09:47;95652.34;;;14.37;44.98
22647;BME280;11490;42.726;23.268;2023-02-18T15:12:17;95648.16;;;14.24;45.48
22647;BME280;11490;42.726;23.268;2023-02-18T15:14:44;95661.94;;;14.33;45.47
22647;BME280;11490;42.726;23.268;2023-02-18T15:17:15;95659.25;;;14.33;45.29
22647;BME280;11490;42.726;23.268;2023-02-18T15:19:46;95643.78;;;14.18;45.63
22647;BME280;11490;42.726;23.268;2023-02-18T15:22:18;95649.75;;;14.25;45.86
22647;BME280;11490;42.726;23.268;2023-02-18T15:24:45;95631.22;;;14.02;46.00
22647;BME280;11490;42.726;23.268;2023-02-18T15:27:27;95633.22;;;13.90;46.35
22647;BME280;11490;42.726;23.268;2023-02-18T15:30:16;95641.75;;;13.87;46.45
22647;BME280;11490;42.726;23.268;2023-02-18T15:32:50;95644.38;;;13.82;47.09
22647;BME280;11490;42.726;23.268;2023-02-18T15:35:18;95630.38;;;13.80;47.33
22647;BME280;11490;42.726;23.268;2023-02-18T15:37:51;95626.38;;;13.61;48.07